Time;durP1;ratioP1;P1;durP2;ratioP2;P2;SDS_P1;SDS_P2;PMS_P1;PMS_P2;Temp;Humidity;BMP_temperature;BMP_pressure;BME280_temperature;BME280_humidity;BME280_pressure;Samples;Min_cycle;Max_cycle;Signal;HPM_P1;HPM_P2
2022/03/26 00:00:15;;;;;;;12.63;10.88;;;;;;;21.50;33.03;101975.97;5115570;27;20050;-81
2022/03/26 00:02:44;;;;;;;12.23;10.73;;;;;;;21.50;33.29;101978.66;5037172;28;20064;-81
2022/03/26 00:05:12;;;;;;;15.20;10.73;;;;;;;21.51;32.83;101997.41;5030911;28;20045;-81
2022/03/26 00:07:39;;;;;;;14.07;11.75;;;;;;;21.50;32.96;101986.75;5032068;28;20053;-81
2022/03/26 00:10:07;;;;;;;12.90;10.75;;;;;;;21.50;32.99;101992.13;5031949;28;20118;-81
2022/03/26 00:12:35;;;;;;;12.85;10.60;;;;;;;21.49;32.90;101985.91;5014647;28;20060;-81
2022/03/26 00:15:04;;;;;;;14.13;11.27;;;;;;;21.49;33.06;101988.59;5030548;28;20046;-81
2022/03/26 00:17:31;;;;;;;13.80;11.40;;;;;;;21.50;33.03;102005.63;5045580;28;20046;-82
2022/03/26 00:19:59;;;;;;;12.55;10.65;;;;;;;21.47;32.97;101994.09;5031121;28;20061;-81
2022/03/26 00:22:27;;;;;;;11.63;10.15;;;;;;;21.48;32.96;101995.81;5013825;28;20485;-82
2022/03/26 00:24:54;;;;;;;13.95;11.52;;;;;;;21.47;33.00;101996.81;5031164;28;20038;-81
2022/03/26 00:27:22;;;;;;;13.18;11.07;;;;;;;21.47;32.86;101988.72;5014208;28;20053;-81
2022/03/26 00:29:49;;;;;;;12.25;10.27;;;;;;;21.48;32.84;101997.66;5030370;28;20516;-82
2022/03/26 00:32:17;;;;;;;14.20;11.43;;;;;;;21.47;32.88;101994.09;5038344;28;20431;-82
2022/03/26 00:34:45;;;;;;;11.52;10.35;;;;;;;21.47;32.83;101994.09;5031309;28;20090;-82
2022/03/26 00:37:12;;;;;;;13.77;10.85;;;;;;;21.47;32.86;101998.59;5031111;28;20046;-82
2022/03/26 00:39:40;;;;;;;11.90;10.68;;;;;;;21.47;32.84;101996.81;5031233;28;20049;-82
2022/03/26 00:42:09;;;;;;;11.98;10.70;;;;;;;21.47;32.91;101985.13;5031171;28;20412;-82
2022/03/26 00:44:38;;;;;;;12.95;11.18;;;;;;;21.47;32.73;101995.91;5031161;28;20086;-83
2022/03/26 00:47:06;;;;;;;12.45;11.15;;;;;;;21.47;32.83;101995.91;5030713;28;20056;-82
2022/03/26 00:49:34;;;;;;;12.73;11.40;;;;;;;21.47;32.74;101990.53;5030992;28;20057;-82
2022/03/26 00:52:03;;;;;;;11.82;9.73;;;;;;;21.46;32.80;101997.75;5031376;28;20049;-82
2022/03/26 00:54:30;;;;;;;15.40;11.75;;;;;;;21.45;32.58;101982.56;5013769;28;20049;-83
2022/03/26 00:56:58;;;;;;;12.60;11.30;;;;;;;21.45;32.68;101982.56;5032538;28;20159;-83
2022/03/26 00:59:26;;;;;;;12.68;10.82;;;;;;;21.45;32.68;101979.88;5013772;28;20060;-83
2022/03/26 01:01:53;;;;;;;12.73;10.82;;;;;;;21.46;32.67;101986.13;5013457;28;20050;-84
2022/03/26 01:04:21;;;;;;;12.80;10.73;;;;;;;21.46;32.89;101992.38;5032092;28;20060;-83
2022/03/26 01:06:48;;;;;;;11.35;10.15;;;;;;;21.46;32.65;101991.50;5031314;28;20068;-84
2022/03/26 01:09:15;;;;;;;12.98;11.25;;;;;;;21.45;32.69;101998.75;5013114;28;20053;-82
2022/03/26 01:11:43;;;;;;;13.30;10.68;;;;;;;21.46;32.73;101994.22;5030380;28;20106;-81
2022/03/26 01:14:10;;;;;;;13.00;11.00;;;;;;;21.45;32.54;101984.41;5030531;28;20373;-81
2022/03/26 01:16:38;;;;;;;12.23;10.15;;;;;;;21.45;32.66;101997.88;5034948;28;20041;-82
2022/03/26 01:19:05;;;;;;;12.95;10.23;;;;;;;21.46;32.64;101994.22;5017077;28;20408;-81
2022/03/26 01:21:32;;;;;;;12.68;10.75;;;;;;;21.46;32.64;101996.91;5033950;28;20046;-81
2022/03/26 01:24:00;;;;;;;14.07;11.15;;;;;;;21.45;32.56;101998.75;5034517;28;20049;-81
2022/03/26 01:26:27;;;;;;;11.85;10.27;;;;;;;21.45;32.56;101992.50;5033347;28;20053;-82
2022/03/26 01:28:54;;;;;;;14.60;10.68;;;;;;;21.45;32.47;101998.75;5015505;28;20045;-82
2022/03/26 01:31:22;;;;;;;11.98;10.77;;;;;;;21.45;32.71;102000.59;5062523;27;20076;-83
2022/03/26 01:33:50;;;;;;;14.50;10.82;;;;;;;21.44;32.55;101993.47;5031289;28;20389;-82
2022/03/26 01:36:18;;;;;;;12.95;11.45;;;;;;;21.45;32.51;102005.97;5033229;28;20393;-82
2022/03/26 01:38:45;;;;;;;15.38;11.48;;;;;;;21.44;32.69;102009.66;5032868;28;20049;-83
2022/03/26 01:41:12;;;;;;;12.18;10.40;;;;;;;21.45;32.59;102011.34;5049583;28;20049;-82
2022/03/26 01:43:41;;;;;;;11.27;10.18;;;;;;;21.43;32.37;102010.59;5016364;28;20045;-82
2022/03/26 01:46:10;;;;;;;12.30;10.60;;;;;;;21.43;32.62;102006.09;5033421;28;20049;-81
2022/03/26 01:48:39;;;;;;;12.02;10.65;;;;;;;21.43;32.48;102014.19;5034151;28;20050;-81
2022/03/26 01:51:16;;;;;;;12.55;9.55;;;;;;;21.44;32.52;102017.72;5015506;28;20050;-81
2022/03/26 01:53:50;;;;;;;13.13;10.95;;;;;;;21.43;32.54;102016.88;5033763;28;20045;-81
2022/03/26 01:56:19;;;;;;;12.00;9.80;;;;;;;21.44;32.44;102025.81;5033927;28;20204;-81
2022/03/26 01:58:46;;;;;;;11.43;10.23;;;;;;;21.42;32.46;102020.53;5016926;28;20421;-81
2022/03/26 02:01:14;;;;;;;12.07;10.75;;;;;;;21.43;32.54;102021.38;5033388;28;20064;-82
2022/03/26 02:03:42;;;;;;;12.43;10.15;;;;;;;21.43;32.50;102021.38;5015969;28;20053;-81
2022/03/26 02:06:09;;;;;;;11.80;10.60;;;;;;;21.43;32.71;102024.97;5033593;28;20392;-82
2022/03/26 02:08:37;;;;;;;11.38;10.18;;;;;;;21.43;32.56;102024.97;5016264;28;20045;-82
2022/03/26 02:11:04;;;;;;;11.68;10.38;;;;;;;21.42;32.49;102022.34;5033464;28;20052;-82
2022/03/26 02:13:49;;;;;;;11.35;10.25;;;;;;;21.42;32.31;102025.91;4999092;28;20049;-82
2022/03/26 02:16:16;;;;;;;12.38;10.05;;;;;;;21.41;32.28;102021.50;5033164;28;20485;-82
2022/03/26 02:18:44;;;;;;;10.55;9.45;;;;;;;21.42;32.33;102025.06;5032995;28;20049;-82
2022/03/26 02:21:11;;;;;;;10.77;9.75;;;;;;;21.41;32.43;102026.88;5034290;28;20041;-82
2022/03/26 02:23:39;;;;;;;12.80;10.45;;;;;;;21.41;32.33;102029.59;5033646;28;20061;-81
2022/03/26 02:26:06;;;;;;;11.57;9.93;;;;;;;21.42;32.51;102025.06;5033861;28;20052;-80
2022/03/26 02:28:34;;;;;;;11.52;10.40;;;;;;;21.42;32.29;102019.66;5033374;28;20049;-80
2022/03/26 02:31:01;;;;;;;11.07;9.82;;;;;;;21.42;32.24;102025.06;5047432;27;20042;-81
2022/03/26 02:33:29;;;;;;;12.65;9.73;;;;;;;21.42;32.12;102019.66;5088122;27;20056;-81
2022/03/26 02:35:56;;;;;;;11.15;9.35;;;;;;;21.42;32.12;102022.34;5033291;28;20042;-80
2022/03/26 02:38:24;;;;;;;11.18;9.57;;;;;;;21.41;32.28;102021.50;5032970;28;20049;-80
2022/03/26 02:40:51;;;;;;;10.40;9.40;;;;;;;21.41;32.26;102018.81;5032797;28;20053;-81
2022/03/26 02:43:19;;;;;;;11.00;9.82;;;;;;;21.40;32.21;102027.03;5032079;28;20053;-82
2022/03/26 02:45:46;;;;;;;12.20;9.25;;;;;;;21.41;32.31;102026.88;5015166;28;20503;-81
2022/03/26 02:48:14;;;;;;;10.90;9.00;;;;;;;21.41;32.12;102034.13;5015068;28;20053;-81
2022/03/26 02:50:43;;;;;;;9.60;8.70;;;;;;;21.40;32.09;102032.41;5032864;28;20042;-81
2022/03/26 02:53:10;;;;;;;10.45;9.18;;;;;;;21.40;32.14;102037.78;5032214;28;20041;-82
2022/03/26 02:55:39;;;;;;;10.55;8.80;;;;;;;21.40;32.32;102037.78;5031900;28;20168;-81
2022/03/26 02:58:08;;;;;;;10.55;9.13;;;;;;;21.40;32.17;102045.88;5032482;28;20053;-81
2022/03/26 03:00:37;;;;;;;9.80;8.77;;;;;;;21.39;32.00;102042.34;5014950;28;20050;-80
2022/03/26 03:03:06;;;;;;;9.93;8.73;;;;;;;21.39;32.04;102039.63;5015121;28;20045;-80
2022/03/26 03:05:35;;;;;;;10.52;9.00;;;;;;;21.39;32.16;102036.06;5032592;28;20033;-80
2022/03/26 03:08:02;;;;;;;11.07;9.05;;;;;;;21.39;32.03;102036.06;5030997;28;20408;-81
2022/03/26 03:10:30;;;;;;;10.98;9.85;;;;;;;21.39;31.95;102042.34;5032539;28;20484;-81
2022/03/26 03:12:59;;;;;;;11.27;8.75;;;;;;;21.38;32.05;102035.19;5032419;28;20053;-81
2022/03/26 03:15:26;;;;;;;10.25;8.90;;;;;;;21.39;31.90;102041.44;5032835;28;20056;-81
2022/03/26 03:17:54;;;;;;;11.57;9.45;;;;;;;21.39;32.09;102041.44;5014665;28;20053;-81
2022/03/26 03:20:21;;;;;;;11.13;8.88;;;;;;;21.38;32.01;102043.28;5014910;28;20060;-81
2022/03/26 03:22:48;;;;;;;10.93;9.10;;;;;;;21.39;32.08;102038.75;5032870;28;20053;-81
2022/03/26 03:25:16;;;;;;;9.93;8.82;;;;;;;21.37;31.83;102038.88;5031832;28;20049;-81
2022/03/26 03:27:43;;;;;;;9.43;8.52;;;;;;;21.37;31.88;102044.25;5030729;28;20477;-81
2022/03/26 03:30:11;;;;;;;10.82;9.38;;;;;;;21.37;32.00;102033.50;5013627;28;20072;-81
2022/03/26 03:32:39;;;;;;;10.07;8.95;;;;;;;21.37;31.93;102035.31;5024558;27;20051;-81
2022/03/26 03:35:06;;;;;;;10.07;9.02;;;;;;;21.37;31.96;102036.19;5048409;27;20049;-81
2022/03/26 03:37:35;;;;;;;10.48;9.38;;;;;;;21.37;32.01;102038.88;5028695;28;20049;-81
2022/03/26 03:40:04;;;;;;;10.75;8.27;;;;;;;21.37;31.72;102044.25;5031642;28;20057;-82
2022/03/26 03:42:32;;;;;;;10.63;8.95;;;;;;;21.38;32.00;102045.13;5013140;28;20405;-81
2022/03/26 03:45:00;;;;;;;9.90;8.88;;;;;;;21.37;31.75;102048.78;5014016;28;20135;-81
2022/03/26 03:47:27;;;;;;;9.82;8.80;;;;;;;21.36;31.91;102047.09;5014107;28;20046;-81
2022/03/26 03:49:55;;;;;;;10.55;9.38;;;;;;;21.36;31.88;102042.56;5031836;28;20048;-81
2022/03/26 03:52:22;;;;;;;10.40;9.25;;;;;;;21.36;32.00;102047.94;5013001;28;20049;-82
2022/03/26 03:54:49;;;;;;;9.68;8.40;;;;;;;21.35;31.91;102048.03;5030571;28;20049;-82
2022/03/26 03:57:17;;;;;;;10.18;8.68;;;;;;;21.37;31.87;102049.66;5046374;28;20417;-81
2022/03/26 03:59:44;;;;;;;9.25;8.32;;;;;;;21.36;31.84;102047.09;5032093;28;20049;-81
2022/03/26 04:02:11;;;;;;;10.82;9.25;;;;;;;21.36;31.92;102047.09;5031585;28;20049;-81
2022/03/26 04:04:42;;;;;;;9.70;8.63;;;;;;;;;;5013612;28;20057;-81
2022/03/26 04:07:09;;;;;;;10.48;8.90;;;;;;;21.36;31.98;102057.84;5014434;28;20060;-81
2022/03/26 04:09:37;;;;;;;11.43;9.20;;;;;;;;;;5031940;28;20050;-81
2022/03/26 04:12:05;;;;;;;9.68;7.82;;;;;;;21.35;31.92;102061.50;5014390;28;20060;-81
2022/03/26 04:14:32;;;;;;;9.75;8.75;;;;;;;21.34;31.86;102065.19;5031796;28;20057;-81
2022/03/26 04:17:00;;;;;;;10.15;8.43;;;;;;;21.34;31.89;102062.50;5032244;28;20056;-81
2022/03/26 04:19:27;;;;;;;9.98;8.73;;;;;;;21.33;31.89;102067.03;5015765;28;20052;-81
2022/03/26 04:21:57;;;;;;;9.57;8.38;;;;;;;;;;5013765;28;20090;-81
2022/03/26 04:24:25;;;;;;;9.70;8.70;;;;;;;21.34;31.83;102067.88;5031586;28;20049;-81
2022/03/26 04:26:52;;;;;;;10.63;9.20;;;;;;;21.33;31.79;102066.16;5031493;28;20041;-81
2022/03/26 04:29:19;;;;;;;9.02;8.10;;;;;;;21.32;31.90;102067.13;5031802;28;20359;-81
2022/03/26 04:31:47;;;;;;;10.48;8.93;;;;;;;21.33;31.86;102068.84;5032054;28;20050;-81
2022/03/26 04:34:14;;;;;;;9.48;8.55;;;;;;;21.32;31.71;102070.69;5041302;28;20740;-80
2022/03/26 04:36:41;;;;;;;10.15;8.60;;;;;;;21.32;31.88;102069.81;5011387;28;20054;-81
2022/03/26 04:39:09;;;;;;;9.73;8.73;;;;;;;21.32;31.86;102075.19;5011240;28;20049;-82
2022/03/26 04:41:36;;;;;;;9.30;8.43;;;;;;;21.32;31.81;102072.50;5012044;28;20049;-82
2022/03/26 04:44:04;;;;;;;9.38;8.32;;;;;;;21.32;31.63;102078.78;4994938;28;20428;-82
2022/03/26 04:46:32;;;;;;;10.80;8.35;;;;;;;21.32;31.66;102077.88;5011044;28;20053;-82
2022/03/26 04:49:00;;;;;;;9.85;8.77;;;;;;;21.32;31.54;102076.09;5010283;28;20057;-82
2022/03/26 04:51:27;;;;;;;11.45;9.35;;;;;;;21.31;31.55;102076.16;5013205;28;20057;-81
2022/03/26 04:53:55;;;;;;;9.73;8.73;;;;;;;21.32;31.57;102083.28;5014897;28;20045;-80
2022/03/26 04:56:22;;;;;;;9.68;8.60;;;;;;;21.32;31.59;102088.66;4996895;28;20120;-81
2022/03/26 04:58:49;;;;;;;10.88;9.38;;;;;;;21.31;31.40;102084.22;4997409;28;20057;-81
2022/03/26 05:01:18;;;;;;;13.05;9.15;;;;;;;21.31;31.38;102089.63;5014818;28;20493;-80
2022/03/26 05:03:46;;;;;;;9.15;8.25;;;;;;;21.31;31.47;102089.63;5014413;28;20401;-81
2022/03/26 05:06:14;;;;;;;9.52;8.52;;;;;;;21.31;31.55;102092.31;5014541;28;20046;-80
2022/03/26 05:08:41;;;;;;;11.23;8.88;;;;;;;21.30;31.31;102096.84;5014526;28;20489;-80
2022/03/26 05:11:08;;;;;;;9.48;8.48;;;;;;;21.30;31.41;102102.22;4997096;28;20056;-81
2022/03/26 05:13:36;;;;;;;10.77;8.65;;;;;;;21.30;31.38;102102.22;5013479;28;20050;-82
2022/03/26 05:16:03;;;;;;;9.88;8.68;;;;;;;21.30;31.42;102101.38;5012976;28;20046;-82
2022/03/26 05:18:31;;;;;;;10.60;9.57;;;;;;;21.29;31.27;102102.34;5013694;28;20038;-81
2022/03/26 05:20:58;;;;;;;10.38;9.10;;;;;;;21.29;31.40;102100.50;5014356;28;20054;-81
2022/03/26 05:23:26;;;;;;;10.18;9.18;;;;;;;21.29;31.58;102100.50;4996817;28;20076;-81
2022/03/26 05:25:54;;;;;;;9.75;8.77;;;;;;;21.29;31.39;102105.03;5014499;28;20038;-81
2022/03/26 05:28:21;;;;;;;10.10;9.10;;;;;;;21.29;31.51;102102.34;5014196;28;20057;-81
2022/03/26 05:30:50;;;;;;;10.63;8.45;;;;;;;21.29;31.60;102099.66;5014535;28;20053;-81
2022/03/26 05:33:18;;;;;;;9.20;8.30;;;;;;;21.28;31.27;102106.03;5014283;28;20524;-80
2022/03/26 05:35:45;;;;;;;10.20;8.45;;;;;;;21.28;31.34;102112.28;5056498;28;20046;-81
2022/03/26 05:38:13;;;;;;;10.15;8.90;;;;;;;21.28;31.34;102117.66;5014712;28;20045;-80
2022/03/26 05:40:40;;;;;;;10.95;8.75;;;;;;;21.28;31.34;102116.81;5014498;28;20385;-80
2022/03/26 05:43:08;;;;;;;10.95;9.40;;;;;;;21.28;31.16;102125.75;5032884;28;20052;-81
2022/03/26 05:45:35;;;;;;;10.02;8.98;;;;;;;21.27;31.40;102123.13;5016008;28;20061;-81
2022/03/26 05:48:05;;;;;;;9.57;8.57;;;;;;;21.27;31.26;102120.44;5033379;28;20051;-81
2022/03/26 05:50:33;;;;;;;10.27;8.93;;;;;;;21.27;31.21;102125.81;5034046;28;20049;-81
2022/03/26 05:53:01;;;;;;;10.57;8.88;;;;;;;21.26;31.20;102122.28;5033523;28;20049;-81
2022/03/26 05:55:29;;;;;;;9.82;8.82;;;;;;;21.28;31.33;102135.66;5015605;28;20058;-81
2022/03/26 05:57:56;;;;;;;10.43;8.60;;;;;;;21.27;31.24;102131.22;5033294;28;20481;-81
2022/03/26 06:00:24;;;;;;;11.07;9.20;;;;;;;21.26;31.24;102126.81;5033169;28;20056;-81
2022/03/26 06:02:51;;;;;;;9.70;8.70;;;;;;;21.26;31.28;102129.50;5033265;28;20049;-80
2022/03/26 06:05:19;;;;;;;10.48;8.52;;;;;;;21.27;31.33;102136.59;5033308;28;20053;-79
2022/03/26 06:07:47;;;;;;;12.32;9.07;;;;;;;21.27;31.37;102137.50;5016977;28;20053;-79
2022/03/26 06:10:14;;;;;;;9.93;8.93;;;;;;;21.27;31.25;102142.00;5015774;28;20049;-80
2022/03/26 06:12:44;;;;;;;9.95;8.60;;;;;;;21.26;31.14;102133.06;5033290;28;20045;-79
2022/03/26 06:15:12;;;;;;;10.13;8.80;;;;;;;21.26;31.32;102135.75;5033798;28;20049;-80
2022/03/26 06:18:00;;;;;;;10.00;8.52;;;;;;;21.27;31.26;102150.06;5139289;27;20040;-80
2022/03/26 06:20:28;;;;;;;10.38;9.27;;;;;;;21.26;31.24;102148.34;5137537;27;20513;-79
2022/03/26 06:22:55;;;;;;;9.98;8.30;;;;;;;21.27;31.45;102152.75;5121047;27;20062;-78
2022/03/26 06:25:22;;;;;;;9.13;8.23;;;;;;;21.26;31.49;102154.59;5137665;27;20049;-79
2022/03/26 06:27:50;;;;;;;11.35;9.20;;;;;;;21.26;31.68;102156.44;5118303;27;20402;-79
2022/03/26 06:30:18;;;;;;;9.43;8.45;;;;;;;21.26;31.53;102156.44;5137196;27;20050;-80
2022/03/26 06:32:46;;;;;;;10.25;8.75;;;;;;;21.26;31.57;102165.38;5118970;27;20054;-79
2022/03/26 06:35:13;;;;;;;9.80;8.80;;;;;;;21.26;31.60;102159.13;5115143;27;20042;-78
2022/03/26 06:37:40;;;;;;;9.82;8.60;;;;;;;21.27;31.65;102160.84;5042087;28;20053;-78
2022/03/26 06:40:08;;;;;;;9.57;8.55;;;;;;;21.24;31.80;102160.13;5032892;28;20046;-79
2022/03/26 06:42:36;;;;;;;9.02;7.80;;;;;;;21.26;31.73;102161.81;5031881;28;20480;-79
2022/03/26 06:45:03;;;;;;;9.55;8.65;;;;;;;21.26;31.72;102164.53;5013190;28;20053;-79
2022/03/26 06:47:31;;;;;;;9.30;8.30;;;;;;;21.24;31.76;102162.81;5032519;28;20065;-80
2022/03/26 06:49:58;;;;;;;9.50;8.60;;;;;;;21.24;31.64;102160.13;5014737;28;20058;-79
2022/03/26 06:52:26;;;;;;;9.23;8.27;;;;;;;21.24;31.90;102162.81;5032596;28;20042;-80
2022/03/26 06:54:54;;;;;;;10.32;8.40;;;;;;;21.26;31.74;102172.59;5032771;28;20496;-80
2022/03/26 06:57:21;;;;;;;9.65;8.65;;;;;;;21.24;31.63;102173.59;5032378;28;20050;-79
2022/03/26 06:59:48;;;;;;;9.85;8.85;;;;;;;21.24;31.62;102175.41;5014789;28;20370;-79
2022/03/26 07:02:16;;;;;;;10.98;8.63;;;;;;;21.23;31.74;102174.56;5014573;28;20049;-79
2022/03/26 07:04:43;;;;;;;9.50;8.50;;;;;;;21.25;31.71;102179.81;5032287;28;20477;-79
2022/03/26 07:07:14;;;;;;;9.27;8.27;;;;;;;21.25;31.62;102174.44;5032255;28;20052;-80
2022/03/26 07:09:42;;;;;;;8.82;7.90;;;;;;;21.26;31.71;102188.75;5032331;28;20050;-80
2022/03/26 07:12:10;;;;;;;9.30;8.27;;;;;;;21.26;31.67;102191.44;5031160;28;20048;-79
2022/03/26 07:14:38;;;;;;;10.07;8.20;;;;;;;21.26;31.88;102180.69;5031044;28;20050;-79
2022/03/26 07:17:05;;;;;;;8.52;7.63;;;;;;;21.26;31.47;102192.31;5031366;28;20045;-79
2022/03/26 07:19:33;;;;;;;10.02;8.48;;;;;;;21.27;31.59;102182.41;5029382;28;20057;-80
2022/03/26 07:22:00;;;;;;;10.55;9.00;;;;;;;21.26;31.54;102181.53;5032876;28;20052;-80
2022/03/26 07:24:28;;;;;;;9.63;8.48;;;;;;;21.26;31.55;102183.38;5033536;28;20045;-79
2022/03/26 07:26:56;;;;;;;9.68;8.48;;;;;;;21.26;31.56;102191.44;5014659;28;20373;-79
2022/03/26 07:29:23;;;;;;;10.52;8.38;;;;;;;21.26;31.75;102192.31;5031771;28;20045;-79
2022/03/26 07:31:51;;;;;;;9.18;7.80;;;;;;;21.27;31.61;102198.56;5031515;28;20405;-79
2022/03/26 07:34:19;;;;;;;8.48;7.53;;;;;;;21.27;31.41;102198.56;5031832;28;20042;-79
2022/03/26 07:36:46;;;;;;;8.82;7.43;;;;;;;21.27;31.55;102199.44;5044030;28;20413;-80
2022/03/26 07:39:15;;;;;;;8.55;7.70;;;;;;;21.28;31.66;102211.06;5010752;28;20041;-79
2022/03/26 07:41:42;;;;;;;9.63;8.52;;;;;;;21.28;31.63;102211.06;5030642;28;20056;-79
2022/03/26 07:44:11;;;;;;;8.82;7.88;;;;;;;21.28;31.61;102227.22;5031632;28;20481;-79
2022/03/26 07:46:39;;;;;;;9.95;8.05;;;;;;;21.28;31.67;102220.00;5031695;28;20042;-79
2022/03/26 07:49:06;;;;;;;8.80;7.90;;;;;;;21.28;31.49;102219.16;5030269;28;20041;-80
2022/03/26 07:51:33;;;;;;;9.25;8.00;;;;;;;21.29;31.63;102223.56;5015277;28;20053;-80
2022/03/26 07:54:01;;;;;;;8.52;7.55;;;;;;;21.28;31.70;102222.69;5031509;28;20052;-79
2022/03/26 07:56:28;;;;;;;7.90;7.18;;;;;;;21.28;31.92;102225.41;5032234;28;20463;-79
2022/03/26 07:58:59;;;;;;;9.70;8.38;;;;;;;21.29;31.62;102218.16;5030623;28;20049;-79
2022/03/26 08:01:27;;;;;;;8.02;7.22;;;;;;;21.28;31.87;102221.84;5012774;28;20054;-79
2022/03/26 08:03:55;;;;;;;8.57;7.40;;;;;;;21.29;31.85;102227.09;5031345;28;20046;-79
2022/03/26 08:06:23;;;;;;;8.82;7.95;;;;;;;21.29;31.69;102223.56;5030925;28;20507;-80
2022/03/26 08:08:51;;;;;;;9.75;8.00;;;;;;;21.30;31.69;102225.28;5012991;28;20050;-79
2022/03/26 08:11:18;;;;;;;8.30;7.40;;;;;;;21.29;31.81;102227.09;5030516;28;20045;-80
2022/03/26 08:13:45;;;;;;;9.35;8.35;;;;;;;21.30;31.74;102228.81;5013054;28;20045;-80
2022/03/26 08:16:13;;;;;;;8.75;7.30;;;;;;;21.30;31.68;102231.50;5031031;28;20050;-80
2022/03/26 08:18:40;;;;;;;8.93;7.85;;;;;;;21.31;31.61;102233.25;5030785;28;20053;-80
2022/03/26 08:21:10;;;;;;;8.70;7.90;;;;;;;21.31;31.78;102230.56;5030667;28;20045;-81
2022/03/26 08:23:37;;;;;;;9.05;7.47;;;;;;;21.32;31.90;102240.41;5030904;28;20041;-80
2022/03/26 08:26:20;;;;;;;8.77;7.45;;;;;;;21.33;31.95;102238.56;5033747;28;20392;-80
2022/03/26 08:28:48;;;;;;;12.60;11.27;;;;;;;21.34;29.40;102237.59;5001144;28;20053;-79
2022/03/26 08:31:17;;;;;;;13.48;11.50;;;;;;;21.32;29.06;102245.78;5034951;28;20049;-78
2022/03/26 08:33:45;;;;;;;17.75;11.73;;;;;;;21.33;29.14;102236.72;5015708;28;20061;-79
2022/03/26 08:36:14;;;;;;;17.00;13.27;;;;;;;21.34;28.88;102237.59;5034357;28;20049;-79
2022/03/26 08:38:44;;;;;;;14.30;11.63;;;;;;;;;;5062365;27;20362;-78
2022/03/26 08:41:15;;;;;;;17.85;11.18;;;;;;;21.36;29.14;102238.34;5016713;28;20057;-79
2022/03/26 08:43:44;;;;;;;16.42;13.25;;;;;;;21.36;28.91;102232.97;5013952;28;20049;-79
2022/03/26 08:46:11;;;;;;;10.90;9.63;;;;;;;21.38;30.47;102239.06;5013545;28;20053;-78
2022/03/26 08:48:39;;;;;;;13.55;10.88;;;;;;;21.38;30.40;102241.78;5014025;28;20148;-77
2022/03/26 08:51:06;;;;;;;13.70;10.18;;;;;;;21.38;30.27;102237.25;4996746;28;20405;-80
2022/03/26 08:53:34;;;;;;;11.57;10.20;;;;;;;21.39;30.62;102236.28;4996367;28;20053;-81
2022/03/26 08:56:01;;;;;;;10.50;8.75;;;;;;;21.40;31.35;102229.94;5014516;28;20041;-81
2022/03/26 08:58:28;;;;;;;11.13;9.75;;;;;;;21.42;30.94;102240.56;4998171;28;20405;-85
2022/03/26 09:00:56;;;;;;;13.45;10.75;;;;;;;21.40;29.81;102237.16;5014011;28;20058;-80
2022/03/26 09:03:24;;;;;;;13.15;10.52;;;;;;;21.39;29.13;102236.28;5022278;28;20049;-80
2022/03/26 09:05:56;;;;;;;13.73;11.57;;;;;;;21.38;28.40;102239.94;5034222;28;20050;-80
2022/03/26 09:08:24;;;;;;;15.05;10.93;;;;;;;21.37;28.49;102231.97;5033971;28;20041;-80
2022/03/26 09:10:51;;;;;;;11.50;10.30;;;;;;;21.37;29.34;102234.66;5034146;28;20465;-80
2022/03/26 09:13:18;;;;;;;14.35;10.60;;;;;;;;;;5035164;28;20150;-79
2022/03/26 09:15:46;;;;;;;13.85;11.38;;;;;;;;;;5033308;28;20045;-79
2022/03/26 09:18:13;;;;;;;14.70;11.30;;;;;;;21.35;28.50;102231.22;5033551;28;20053;-78
2022/03/26 09:20:40;;;;;;;12.40;11.10;;;;;;;21.35;27.97;102233.91;5034194;28;20049;-78
2022/03/26 09:23:08;;;;;;;11.85;10.65;;;;;;;;;;5033802;28;20045;-79
2022/03/26 09:25:35;;;;;;;11.40;10.30;;;;;;;21.35;29.18;102231.22;5033294;28;20048;-81
2022/03/26 09:28:03;;;;;;;15.45;12.32;;;;;;;21.37;28.39;102235.53;5016614;28;20046;-81
2022/03/26 09:30:31;;;;;;;15.48;12.88;;;;;;;21.38;28.71;102233.69;5084273;27;20050;-79
2022/03/26 09:33:00;;;;;;;15.57;12.57;;;;;;;21.38;27.93;102234.53;5013196;28;20064;-77
2022/03/26 09:35:28;;;;;;;15.23;12.25;;;;;;;21.39;28.19;102232.72;5069520;27;20046;-78
2022/03/26 09:37:55;;;;;;;13.27;11.88;;;;;;;21.39;28.42;102225.53;5061161;28;20052;-78
2022/03/26 09:40:24;;;;;;;11.70;10.50;;;;;;;21.39;28.59;102230.00;5089697;27;20052;-79
2022/03/26 09:42:52;;;;;;;13.02;9.38;;;;;;;21.38;29.26;102222.91;5033176;28;20050;-83
2022/03/26 09:45:20;;;;;;;11.13;10.02;;;;;;;21.38;29.18;102225.59;5033605;28;20045;-80
2022/03/26 09:47:48;;;;;;;13.98;10.50;;;;;;;21.39;29.48;102211.16;5034986;28;20050;-85
2022/03/26 09:50:15;;;;;;;12.18;10.02;;;;;;;21.41;29.58;102217.31;5034618;28;20053;-79
2022/03/26 09:52:43;;;;;;;14.27;9.98;;;;;;;21.42;29.73;102210.94;5034300;28;20057;-81
2022/03/26 09:55:11;;;;;;;13.55;9.57;;;;;;;21.42;29.56;102219.03;5015926;28;20049;-84
2022/03/26 09:57:40;;;;;;;14.32;10.60;;;;;;;21.41;29.48;102218.16;5034621;28;20050;-84
2022/03/26 10:00:09;;;;;;;12.95;9.85;;;;;;;21.42;29.63;102214.50;5033973;28;20049;-83
2022/03/26 10:02:40;;;;;;;10.05;8.70;;;;;;;21.41;29.50;102207.41;5055144;28;20057;-86
2022/03/26 10:05:10;;;;;;;11.00;9.27;;;;;;;21.42;29.54;102205.56;5032036;28;20049;-83
2022/03/26 10:07:39;;;;;;;13.13;8.88;;;;;;;21.42;29.81;102209.09;5034544;28;20057;-83
2022/03/26 10:10:07;;;;;;;12.68;10.73;;;;;;;21.42;28.89;102208.25;5034025;28;20050;-85
2022/03/26 10:12:34;;;;;;;13.23;9.02;;;;;;;21.43;30.42;102205.47;5033414;28;20481;-82
2022/03/26 10:15:04;;;;;;;10.52;9.00;;;;;;;21.44;29.84;102201.78;5032649;28;20068;-84
2022/03/26 10:17:34;;;;;;;11.82;9.82;;;;;;;21.44;29.73;102200.94;5027561;27;20054;-83
2022/03/26 10:20:08;;;;;;;11.38;8.65;;;;;;;21.44;30.14;102198.25;5137984;27;20046;-83
2022/03/26 10:22:37;;;;;;;10.48;7.97;;;;;;;21.45;30.45;102202.66;5138441;27;20047;-83
2022/03/26 10:25:23;;;;;;;9.63;8.65;;;;;;;21.47;30.10;102200.69;5119007;27;20055;-84
2022/03/26 10:27:56;;;;;;;9.70;8.73;;;;;;;21.44;30.06;102196.41;5138296;27;20494;-83
2022/03/26 10:33:20;;;;;;;9.95;8.82;;;;;;;21.45;30.11;102198.13;5135479;27;20054;-81
2022/03/26 10:35:54;;;;;;;12.93;9.10;;;;;;;21.46;30.78;102193.59;5116547;27;20058;-85
2022/03/26 10:38:39;;;;;;;12.57;8.77;;;;;;;21.47;30.46;102198.00;5136649;27;20039;-86
2022/03/26 10:41:09;;;;;;;12.15;7.68;;;;;;;21.48;30.83;102199.72;5044698;27;20064;-80
2022/03/26 10:43:37;;;;;;;11.20;8.88;;;;;;;21.47;30.47;102196.19;5013494;28;20489;-80
2022/03/26 10:46:05;;;;;;;9.95;8.85;;;;;;;21.47;29.90;102195.28;5013924;28;20050;-80
2022/03/26 10:48:34;;;;;;;18.63;9.48;;;;;;;21.45;30.06;102195.41;4995600;28;20486;-80
2022/03/26 10:51:09;;;;;;;12.48;9.00;;;;;;;21.45;30.16;102187.34;5012009;28;20049;-80
2022/03/26 10:53:46;;;;;;;9.65;7.97;;;;;;;21.44;30.25;102180.25;5012815;28;20504;-80
2022/03/26 10:56:15;;;;;;;13.20;8.52;;;;;;;21.42;30.34;102179.47;5012974;28;20054;-80
2022/03/26 10:58:46;;;;;;;12.23;8.73;;;;;;;21.42;29.97;102184.84;5032828;28;20042;-79
2022/03/26 11:01:13;;;;;;;10.95;8.98;;;;;;;21.42;30.02;102178.63;5031515;28;20080;-80
2022/03/26 11:03:41;;;;;;;12.35;8.93;;;;;;;21.42;29.85;102182.16;5014415;28;20389;-80
2022/03/26 11:06:10;;;;;;;10.38;9.10;;;;;;;21.41;29.93;102177.75;5031967;28;20045;-80
2022/03/26 11:08:40;;;;;;;10.75;9.60;;;;;;;21.41;29.84;102182.28;5014157;28;20061;-80
2022/03/26 11:11:10;;;;;;;11.00;9.45;;;;;;;21.40;29.98;102172.50;5031629;28;20072;-80
2022/03/26 11:13:48;;;;;;;12.10;10.07;;;;;;;21.40;30.31;102167.97;5032811;28;20060;-79
2022/03/26 11:16:22;;;;;;;10.38;9.05;;;;;;;21.39;30.17;102168.06;5015404;28;20045;-80
2022/03/26 11:19:16;;;;;;;9.95;8.52;;;;;;;21.39;29.97;102159.97;5032395;28;20393;-80
2022/03/26 11:21:44;;;;;;;10.13;9.02;;;;;;;21.39;29.90;102155.47;5031404;28;20053;-79
2022/03/26 11:24:26;;;;;;;11.40;9.48;;;;;;;21.38;29.94;102152.88;5014193;28;20045;-80
2022/03/26 11:27:18;;;;;;;15.32;9.95;;;;;;;21.38;29.89;102150.19;5031999;28;20045;-80
2022/03/26 11:29:57;;;;;;;12.13;9.50;;;;;;;21.37;29.69;102153.84;5031370;28;20052;-80